createdAt,value
2018-07-19T00:00:34.223Z,20.40
2018-07-19T00:03:02.557Z,20.40
2018-07-19T00:05:30.886Z,20.50
2018-07-19T00:07:59.287Z,20.40
2018-07-19T00:10:27.580Z,20.50
2018-07-19T00:15:49.043Z,20.40
2018-07-19T00:18:17.396Z,20.40
2018-07-19T01:12:45.539Z,20.10
2018-07-19T01:15:13.939Z,20.10
2018-07-19T01:17:42.323Z,20.00
2018-07-19T01:23:23.324Z,19.90
2018-07-19T01:25:51.715Z,19.90
2018-07-19T01:28:20.111Z,19.80
2018-07-19T01:30:48.492Z,19.80
2018-07-19T01:33:16.895Z,19.70
2018-07-19T01:35:45.259Z,19.70
2018-07-19T01:38:13.662Z,19.70
2018-07-19T01:40:42.044Z,19.70
2018-07-19T01:43:10.452Z,19.60
2018-07-19T01:45:38.836Z,19.70
2018-07-19T01:48:07.180Z,19.60
2018-07-19T01:50:35.564Z,19.60
2018-07-19T01:53:03.899Z,19.60
2018-07-19T01:55:32.204Z,19.60
2018-07-19T01:58:00.559Z,19.60
2018-07-19T02:00:28.912Z,19.60
2018-07-19T02:02:57.287Z,19.50
2018-07-19T02:05:25.615Z,19.50
2018-07-19T02:07:53.953Z,19.50
2018-07-19T02:10:22.307Z,19.40
2018-07-19T02:21:29.079Z,19.20
2018-07-19T02:23:57.468Z,19.10
2018-07-19T02:26:25.864Z,19.10
2018-07-19T02:28:54.279Z,19.10
2018-07-19T02:31:22.668Z,19.00
2018-07-19T02:33:51.284Z,19.00
2018-07-19T02:36:19.644Z,19.00
2018-07-19T02:38:48.032Z,19.00
2018-07-19T02:41:16.420Z,18.90
2018-07-19T02:43:44.839Z,18.90
2018-07-19T02:46:13.179Z,19.00
2018-07-19T02:48:41.560Z,19.00
2018-07-19T02:51:09.947Z,18.90
2018-07-19T02:53:38.279Z,19.00
2018-07-19T02:56:06.653Z,18.90
2018-07-19T02:58:34.988Z,18.90
2018-07-19T03:01:03.319Z,18.90
2018-07-19T03:03:31.668Z,18.90
2018-07-19T03:06:00.005Z,18.90
2018-07-19T03:08:28.387Z,18.90
2018-07-19T03:10:56.718Z,18.90
2018-07-19T03:19:33.275Z,18.60
2018-07-19T03:25:04.230Z,18.60
2018-07-19T03:27:32.636Z,18.60
2018-07-19T03:30:00.980Z,18.50
2018-07-19T03:32:29.360Z,18.60
2018-07-19T03:34:57.744Z,18.60
2018-07-19T03:37:26.123Z,18.60
2018-07-19T03:39:54.500Z,18.60
2018-07-19T03:42:22.879Z,18.70
2018-07-19T03:44:51.287Z,18.70
2018-07-19T03:47:19.683Z,18.70
2018-07-19T03:49:48.058Z,18.70
2018-07-19T03:52:16.439Z,18.70
2018-07-19T03:54:44.835Z,18.70
2018-07-19T03:57:13.190Z,18.70
2018-07-19T03:59:41.524Z,18.60
2018-07-19T04:02:09.972Z,18.60
2018-07-19T04:04:38.308Z,18.70
2018-07-19T04:07:06.632Z,18.70
2018-07-19T04:09:34.967Z,18.60
2018-07-19T04:12:03.323Z,18.60
2018-07-19T04:17:24.070Z,18.60
2018-07-19T04:20:08.607Z,18.60
2018-07-19T04:25:39.935Z,18.50
2018-07-19T04:28:08.619Z,18.50
2018-07-19T04:30:37.009Z,18.50
2018-07-19T04:33:05.379Z,18.40
2018-07-19T04:35:33.770Z,18.40
2018-07-19T04:38:02.123Z,18.40
2018-07-19T04:40:30.556Z,18.40
2018-07-19T04:42:58.991Z,18.40
2018-07-19T04:45:27.363Z,18.30
2018-07-19T04:47:55.744Z,18.30
2018-07-19T04:50:24.079Z,18.30
2018-07-19T04:52:52.452Z,18.30
2018-07-19T04:55:21.858Z,18.30
2018-07-19T04:57:50.209Z,18.30
2018-07-19T05:00:18.536Z,18.30
2018-07-19T05:02:46.861Z,18.40
2018-07-19T05:05:15.207Z,18.40
2018-07-19T05:07:43.539Z,18.40
2018-07-19T05:10:11.887Z,18.40
2018-07-19T05:15:13.112Z,18.50
2018-07-19T05:17:41.475Z,18.50
2018-07-19T05:20:09.801Z,18.50
2018-07-19T05:22:38.315Z,18.50
2018-07-19T06:13:40.968Z,18.90
2018-07-19T06:16:09.400Z,18.90
2018-07-19T06:27:22.794Z,18.90
2018-07-19T06:29:51.206Z,18.90
2018-07-19T06:32:19.603Z,18.90
2018-07-19T06:34:48.092Z,19.00
2018-07-19T06:37:16.434Z,19.00
2018-07-19T06:39:45.153Z,19.00
2018-07-19T06:42:13.504Z,19.10
2018-07-19T06:44:41.881Z,19.10
2018-07-19T06:47:10.702Z,19.20
2018-07-19T06:49:39.035Z,19.20
2018-07-19T06:52:07.707Z,19.20
2018-07-19T06:54:36.061Z,19.20
2018-07-19T06:57:04.412Z,19.20
2018-07-19T06:59:32.762Z,19.30
2018-07-19T07:02:01.102Z,19.30
2018-07-19T07:04:29.440Z,19.40
2018-07-19T07:06:57.805Z,19.30
2018-07-19T07:09:26.168Z,19.40
2018-07-19T07:11:54.528Z,19.50
2018-07-19T07:26:15.148Z,19.50
2018-07-19T07:28:43.748Z,19.50
2018-07-19T07:31:12.115Z,19.60
2018-07-19T07:33:40.506Z,19.80
2018-07-19T07:36:08.890Z,19.80
2018-07-19T07:38:37.311Z,19.60
2018-07-19T07:41:05.721Z,19.60
2018-07-19T07:43:34.098Z,19.70
2018-07-19T07:46:02.479Z,19.70
2018-07-19T07:48:30.863Z,19.60
2018-07-19T07:50:59.317Z,19.60
2018-07-19T07:53:27.671Z,19.70
2018-07-19T07:55:56.041Z,19.80
2018-07-19T07:58:24.379Z,19.70
2018-07-19T08:00:52.708Z,19.70
2018-07-19T08:03:21.050Z,19.70
2018-07-19T08:05:49.390Z,19.80
2018-07-19T08:08:18.067Z,19.90
2018-07-19T08:10:46.465Z,20.00
2018-07-19T08:13:14.801Z,20.00
2018-07-19T08:15:43.192Z,20.00
2018-07-19T08:18:11.590Z,19.90
2018-07-19T08:20:39.921Z,20.00
2018-07-19T08:23:08.251Z,20.00
2018-07-19T08:25:36.684Z,20.00
2018-07-19T08:28:05.380Z,20.20
2018-07-19T08:30:33.780Z,20.30
2018-07-19T08:33:02.121Z,20.30
2018-07-19T08:35:30.484Z,20.30
2018-07-19T08:37:58.832Z,20.30
2018-07-19T08:40:27.177Z,20.30
2018-07-19T08:42:55.516Z,20.40
2018-07-19T08:45:23.855Z,20.50
2018-07-19T08:47:52.200Z,20.70
2018-07-19T08:50:20.538Z,20.70
2018-07-19T08:52:48.878Z,20.90
2018-07-19T08:55:17.231Z,20.90
2018-07-19T08:57:45.599Z,20.90
2018-07-19T09:00:13.932Z,20.90
2018-07-19T09:02:42.399Z,20.80
2018-07-19T09:05:10.738Z,20.80
2018-07-19T09:07:39.070Z,20.70
2018-07-19T09:10:07.421Z,20.70
2018-07-19T09:12:35.784Z,20.70
2018-07-19T09:15:04.151Z,20.90
2018-07-19T09:17:32.519Z,21.00
2018-07-19T09:20:09.124Z,21.10
2018-07-19T09:22:43.794Z,21.20
2018-07-19T09:25:12.144Z,21.30
2018-07-19T09:27:40.490Z,21.40
2018-07-19T09:30:08.875Z,21.50
2018-07-19T09:32:37.229Z,21.60
2018-07-19T09:35:05.628Z,21.70
2018-07-19T09:37:33.971Z,21.60
2018-07-19T09:40:02.289Z,21.50
2018-07-19T09:42:30.653Z,21.60
2018-07-19T09:44:59.034Z,21.80
2018-07-19T09:47:27.894Z,21.80
2018-07-19T09:49:56.693Z,21.70
2018-07-19T09:52:25.040Z,21.70
2018-07-19T09:54:55.719Z,21.60
2018-07-19T09:57:24.083Z,21.70
2018-07-19T09:59:52.418Z,21.80
2018-07-19T10:02:20.795Z,21.80
2018-07-19T10:04:49.179Z,21.80
2018-07-19T10:07:17.516Z,21.90
2018-07-19T10:09:45.882Z,21.90
2018-07-19T10:21:02.810Z,22.20
2018-07-19T10:26:34.489Z,22.60
2018-07-19T10:29:02.873Z,22.80
2018-07-19T10:31:31.260Z,23.00
2018-07-19T10:33:59.637Z,23.20
2018-07-19T10:36:28.044Z,23.40
2018-07-19T10:38:56.445Z,23.80
2018-07-19T10:41:24.892Z,24.20
2018-07-19T10:43:53.296Z,24.40
2018-07-19T10:46:21.673Z,24.30
2018-07-19T10:48:50.041Z,24.60
2018-07-19T10:51:18.407Z,24.30
2018-07-19T10:53:46.777Z,24.30
2018-07-19T10:56:15.123Z,24.50
2018-07-19T10:58:43.452Z,24.60
2018-07-19T11:01:11.768Z,24.60
2018-07-19T11:03:40.099Z,24.90
2018-07-19T11:06:08.420Z,24.70
2018-07-19T11:08:36.757Z,24.60
2018-07-19T11:11:05.075Z,24.90
2018-07-19T11:13:33.401Z,24.70
2018-07-19T11:18:54.772Z,24.80
2018-07-19T11:24:49.199Z,25.20
2018-07-19T11:27:17.567Z,25.30
2018-07-19T11:29:45.937Z,25.50
2018-07-19T11:32:14.351Z,25.80
2018-07-19T11:34:42.695Z,25.70
2018-07-19T11:37:11.059Z,25.50
2018-07-19T11:39:39.455Z,25.80
2018-07-19T11:42:08.010Z,25.80
2018-07-19T11:44:36.410Z,25.80
2018-07-19T11:47:04.771Z,25.70
2018-07-19T11:49:33.107Z,25.40
2018-07-19T11:52:01.716Z,25.40
2018-07-19T11:54:30.095Z,25.40
2018-07-19T11:56:58.476Z,25.70
2018-07-19T11:59:26.795Z,25.70
2018-07-19T12:01:55.119Z,25.10
2018-07-19T12:04:23.460Z,24.90
2018-07-19T12:06:51.767Z,24.90
2018-07-19T12:09:20.111Z,25.10
2018-07-19T12:11:48.436Z,25.30
2018-07-19T12:14:16.770Z,25.70
2018-07-19T12:22:46.571Z,25.30
2018-07-19T12:28:07.531Z,25.70
2018-07-19T12:30:35.873Z,25.60
2018-07-19T12:33:04.211Z,25.70
2018-07-19T12:35:32.589Z,25.70
2018-07-19T12:38:00.957Z,25.70
2018-07-19T12:40:29.335Z,25.60
2018-07-19T12:42:57.704Z,25.50
2018-07-19T12:45:26.064Z,25.50
2018-07-19T12:47:54.441Z,25.40
2018-07-19T12:50:22.808Z,25.60
2018-07-19T12:52:51.277Z,25.30
2018-07-19T12:55:19.755Z,25.30
2018-07-19T12:57:48.091Z,25.30
2018-07-19T13:00:16.472Z,25.30
2018-07-19T13:02:44.803Z,25.50
2018-07-19T13:05:13.128Z,25.70
2018-07-19T13:07:41.485Z,25.70
2018-07-19T13:10:09.820Z,25.60
2018-07-19T13:12:38.160Z,25.50
2018-07-19T14:18:16.967Z,26.70
2018-07-19T14:23:59.496Z,26.90
2018-07-19T14:26:27.867Z,26.10
2018-07-19T14:28:56.269Z,26.20
2018-07-19T14:31:24.623Z,26.50
2018-07-19T14:33:53.008Z,26.70
2018-07-19T14:36:21.375Z,26.90
2018-07-19T14:38:49.744Z,27.10
2018-07-19T14:41:18.088Z,27.00
2018-07-19T14:43:46.443Z,27.10
2018-07-19T14:46:14.791Z,27.00
2018-07-19T14:48:43.204Z,27.10
2018-07-19T14:51:12.024Z,26.80
2018-07-19T14:53:40.704Z,26.80
2018-07-19T14:56:09.587Z,27.00
2018-07-19T14:58:37.900Z,27.10
2018-07-19T15:01:06.243Z,26.70
2018-07-19T15:03:34.581Z,26.90
2018-07-19T15:06:02.928Z,26.70
2018-07-19T15:08:31.235Z,27.10
2018-07-19T15:10:59.550Z,27.20
2018-07-19T15:16:20.860Z,27.20
2018-07-19T15:18:49.235Z,27.40
2018-07-19T15:21:17.598Z,27.30
2018-07-19T16:18:28.175Z,26.40
2018-07-19T16:20:56.589Z,26.60
2018-07-19T16:23:24.940Z,26.60
2018-07-19T16:25:53.324Z,26.50
2018-07-19T16:28:21.699Z,26.40
2018-07-19T16:30:50.062Z,26.50
2018-07-19T16:33:18.420Z,26.50
2018-07-19T16:35:46.792Z,26.30
2018-07-19T16:38:15.124Z,26.40
2018-07-19T16:40:43.485Z,26.70
2018-07-19T16:43:11.853Z,26.40
2018-07-19T16:45:40.243Z,26.40
2018-07-19T16:48:08.720Z,26.40
2018-07-19T16:50:37.118Z,26.60
2018-07-19T16:53:05.487Z,26.60
2018-07-19T16:55:33.835Z,26.60
2018-07-19T16:58:02.175Z,26.50
2018-07-19T17:00:30.554Z,26.40
2018-07-19T17:02:58.895Z,26.10
2018-07-19T17:05:27.260Z,26.10
2018-07-19T17:07:55.587Z,26.00
2018-07-19T17:10:23.930Z,25.90
2018-07-19T17:18:37.648Z,25.60
2018-07-19T17:21:05.960Z,25.60
2018-07-19T17:23:34.288Z,25.50
2018-07-19T17:26:02.627Z,25.50
2018-07-19T17:28:31.002Z,25.80
2018-07-19T17:30:59.366Z,25.50
2018-07-19T17:33:27.719Z,25.00
2018-07-19T17:35:56.051Z,25.00
2018-07-19T17:38:24.367Z,24.80
2018-07-19T17:40:52.708Z,24.70
2018-07-19T17:43:21.029Z,24.80
2018-07-19T17:45:49.424Z,24.80
2018-07-19T17:48:17.771Z,25.00
2018-07-19T17:50:46.101Z,24.80
2018-07-19T17:53:14.413Z,24.60
2018-07-19T17:55:42.739Z,24.60
2018-07-19T17:58:11.124Z,24.40
2018-07-19T18:00:39.437Z,24.20
2018-07-19T18:03:07.769Z,24.10
2018-07-19T18:05:36.055Z,23.90
2018-07-19T18:08:04.487Z,23.80
2018-07-19T18:10:32.835Z,23.60
2018-07-19T18:13:01.151Z,23.50
2018-07-19T18:18:22.552Z,23.50
2018-07-19T18:20:50.852Z,23.40
2018-07-19T18:23:19.706Z,23.40
2018-07-19T18:28:40.783Z,23.30
2018-07-19T18:31:09.111Z,23.10
2018-07-19T18:33:37.411Z,22.90
2018-07-19T18:36:05.752Z,22.70
2018-07-19T18:38:34.083Z,22.50
2018-07-19T18:41:02.391Z,22.30
2018-07-19T18:43:30.719Z,22.20
2018-07-19T18:45:59.079Z,22.20
2018-07-19T18:48:27.492Z,22.30
2018-07-19T18:50:55.816Z,22.20
2018-07-19T18:53:24.129Z,22.10
2018-07-19T18:55:52.561Z,22.00
2018-07-19T18:58:20.875Z,21.80
2018-07-19T19:00:49.215Z,21.70
2018-07-19T19:03:17.532Z,21.60
2018-07-19T19:05:45.874Z,21.50
2018-07-19T19:08:14.219Z,21.30
2018-07-19T19:10:42.547Z,21.20
2018-07-19T19:25:02.713Z,20.60
2018-07-19T19:27:31.120Z,20.50
2018-07-19T19:29:59.464Z,20.40
2018-07-19T19:32:27.873Z,20.30
2018-07-19T19:34:56.252Z,20.20
2018-07-19T19:37:24.601Z,20.10
2018-07-19T19:39:52.975Z,20.00
2018-07-19T19:42:21.356Z,19.90
2018-07-19T19:44:49.721Z,19.80
2018-07-19T19:47:18.100Z,19.70
2018-07-19T19:49:46.470Z,19.70
2018-07-19T19:52:14.818Z,19.70
2018-07-19T19:54:43.181Z,19.70
2018-07-19T19:57:11.617Z,19.60
2018-07-19T19:59:39.948Z,19.60
2018-07-19T20:02:08.428Z,19.50
2018-07-19T20:04:36.775Z,19.40
2018-07-19T20:07:05.131Z,19.40
2018-07-19T20:09:33.449Z,19.30
2018-07-19T20:12:01.749Z,19.20
2018-07-19T20:14:30.089Z,19.10
2018-07-19T20:16:58.425Z,19.00
2018-07-19T21:16:59.428Z,18.20
2018-07-19T21:19:27.818Z,18.20
2018-07-19T21:24:32.992Z,18.20
2018-07-19T21:27:01.416Z,18.20
2018-07-19T21:29:29.809Z,18.20
2018-07-19T21:31:58.164Z,18.10
2018-07-19T21:34:26.547Z,18.10
2018-07-19T21:36:54.913Z,18.00
2018-07-19T21:39:23.279Z,18.00
2018-07-19T21:41:51.623Z,17.90
2018-07-19T21:44:20.048Z,17.90
2018-07-19T21:46:48.455Z,17.80
2018-07-19T21:49:16.861Z,17.80
2018-07-19T21:51:45.231Z,17.70
2018-07-19T21:54:13.555Z,17.70
2018-07-19T21:56:41.880Z,17.60
2018-07-19T21:59:10.202Z,17.60
2018-07-19T22:01:44.973Z,17.50
2018-07-19T22:04:13.920Z,17.50
2018-07-19T22:06:42.441Z,17.50
2018-07-19T22:09:12.152Z,17.50
2018-07-19T22:11:40.512Z,17.50
2018-07-19T22:17:01.317Z,17.40
2018-07-19T22:19:39.296Z,17.40
2018-07-19T23:25:57.607Z,16.80
2018-07-19T23:28:25.972Z,16.90
2018-07-19T23:30:54.361Z,16.90
2018-07-19T23:33:22.880Z,16.90
2018-07-19T23:36:01.167Z,16.90
2018-07-19T23:40:36.824Z,16.90
2018-07-19T23:43:08.905Z,16.90
2018-07-19T23:45:42.551Z,16.70
2018-07-19T23:48:10.957Z,16.80
2018-07-19T23:50:39.306Z,16.70
2018-07-19T23:53:07.659Z,16.70
2018-07-19T23:55:35.964Z,16.70
2018-07-19T23:58:04.343Z,16.70
